createdAt,value
2022-10-02T00:02:48.596Z,10.82
2022-10-02T00:07:58.363Z,11.27
2022-10-02T00:13:06.298Z,7.35
2022-10-02T00:18:13.808Z,14.90
2022-10-02T00:23:28.849Z,13.70
2022-10-02T00:29:03.531Z,10.75
2022-10-02T00:34:26.997Z,13.43
2022-10-02T00:39:37.436Z,12.95
2022-10-02T00:45:18.697Z,9.77
2022-10-02T00:50:38.128Z,19.25
2022-10-02T00:55:53.414Z,10.80
2022-10-02T01:01:11.663Z,15.32
2022-10-02T01:06:13.319Z,20.90
2022-10-02T01:11:14.675Z,15.45
2022-10-02T01:21:34.388Z,16.73
2022-10-02T01:26:35.957Z,20.75
2022-10-02T01:31:38.108Z,18.30
2022-10-02T01:36:39.522Z,19.60
2022-10-02T01:47:08.203Z,10.82
2022-10-02T01:52:24.322Z,15.57
2022-10-02T01:58:27.079Z,16.75
2022-10-02T02:03:41.707Z,19.73
2022-10-02T02:08:51.681Z,12.95
2022-10-02T02:14:25.554Z,20.23
2022-10-02T02:19:51.288Z,13.40
2022-10-02T02:24:59.444Z,16.20
2022-10-02T02:30:06.554Z,16.45
2022-10-02T02:35:14.953Z,14.32
2022-10-02T02:40:23.384Z,9.18
2022-10-02T02:45:29.649Z,14.82
2022-10-02T02:50:51.593Z,14.25
2022-10-02T02:55:57.895Z,17.23
2022-10-02T03:00:59.320Z,18.27
2022-10-02T03:11:27.309Z,16.17
2022-10-02T03:17:00.103Z,16.93
2022-10-02T03:22:13.326Z,18.55
2022-10-02T03:27:26.337Z,18.40
2022-10-02T03:32:29.508Z,22.58
2022-10-02T03:37:31.716Z,11.60
2022-10-02T03:42:35.813Z,12.88
2022-10-02T03:47:37.144Z,15.45
2022-10-02T03:57:40.432Z,19.05
2022-10-02T04:02:52.305Z,11.50
2022-10-02T04:07:57.949Z,20.67
2022-10-02T04:13:16.458Z,18.05
2022-10-02T04:18:23.969Z,14.68
2022-10-02T04:23:39.674Z,17.30
2022-10-02T04:28:46.916Z,20.42
2022-10-02T04:33:48.279Z,14.52
2022-10-02T04:44:15.074Z,15.10
2022-10-02T04:49:54.989Z,11.93
2022-10-02T04:55:02.290Z,8.48
2022-10-02T05:00:06.981Z,11.10
2022-10-02T05:05:26.734Z,9.23
2022-10-02T05:10:52.334Z,9.95
2022-10-02T05:15:59.467Z,7.75
2022-10-02T05:21:12.185Z,9.32
2022-10-02T05:26:28.896Z,10.38
2022-10-02T05:31:38.744Z,11.77
2022-10-02T05:37:06.481Z,11.68
2022-10-02T05:42:16.563Z,13.07
2022-10-02T05:47:31.101Z,11.38
2022-10-02T05:52:54.184Z,12.85
2022-10-02T05:58:03.286Z,13.80
2022-10-02T06:03:25.924Z,10.75
2022-10-02T06:08:50.805Z,13.38
2022-10-02T06:14:00.524Z,13.93
2022-10-02T06:19:14.742Z,19.02
2022-10-02T06:24:38.877Z,14.40
2022-10-02T06:29:49.866Z,15.60
2022-10-02T06:34:51.234Z,14.23
2022-10-02T06:45:27.931Z,11.52
2022-10-02T06:50:36.756Z,14.52
2022-10-02T06:56:02.997Z,15.73
2022-10-02T07:01:10.186Z,15.25
2022-10-02T07:06:24.899Z,10.95
2022-10-02T07:11:46.632Z,16.30
2022-10-02T07:17:21.553Z,15.02
2022-10-02T07:22:55.665Z,13.38
2022-10-02T07:28:18.672Z,13.40
2022-10-02T07:33:31.204Z,16.35
2022-10-02T07:38:50.198Z,17.15
2022-10-02T07:44:26.437Z,16.50
2022-10-02T07:49:56.274Z,14.30
2022-10-02T07:55:09.483Z,9.52
2022-10-02T08:00:15.115Z,16.13
2022-10-02T08:05:33.426Z,12.90
2022-10-02T08:10:39.312Z,11.10
2022-10-02T08:15:44.118Z,16.50
2022-10-02T08:20:47.755Z,13.25
2022-10-02T08:26:07.637Z,16.55
2022-10-02T08:31:12.874Z,13.02
2022-10-02T08:36:36.328Z,15.05
2022-10-02T08:41:52.983Z,10.13
2022-10-02T08:47:00.185Z,12.88
2022-10-02T08:52:28.616Z,11.68
2022-10-02T08:57:41.115Z,17.27
2022-10-02T09:03:01.044Z,10.10
2022-10-02T09:08:17.366Z,12.10
2022-10-02T09:13:43.478Z,16.92
2022-10-02T09:18:56.278Z,11.63
2022-10-02T09:24:19.716Z,10.50
2022-10-02T09:29:50.030Z,13.40
2022-10-02T09:35:22.940Z,12.30
2022-10-02T09:40:39.535Z,10.27
2022-10-02T09:45:58.956Z,14.32
2022-10-02T09:51:12.473Z,14.25
2022-10-02T09:57:00.312Z,7.70
2022-10-02T10:02:25.699Z,8.52
2022-10-02T10:07:49.298Z,8.20
2022-10-02T10:13:26.042Z,9.18
2022-10-02T10:18:42.211Z,9.73
2022-10-02T10:23:51.053Z,8.48
2022-10-02T10:28:58.866Z,7.90
2022-10-02T10:34:09.088Z,7.95
2022-10-02T10:39:10.357Z,6.30
2022-10-02T10:44:31.335Z,8.20
2022-10-02T10:50:18.060Z,6.40
2022-10-02T10:55:38.125Z,9.80
2022-10-02T11:01:14.084Z,9.35
2022-10-02T11:06:32.896Z,8.15
2022-10-02T11:11:49.779Z,7.70
2022-10-02T11:17:03.254Z,7.57
2022-10-02T11:22:46.573Z,6.35
2022-10-02T11:28:02.922Z,7.28
2022-10-02T11:33:23.695Z,7.93
2022-10-02T11:38:53.914Z,9.35
2022-10-02T11:44:04.732Z,8.13
2022-10-02T11:49:34.309Z,5.88
2022-10-02T11:54:47.176Z,7.00
2022-10-02T12:00:13.983Z,5.68
2022-10-02T12:05:55.143Z,5.35
2022-10-02T12:11:11.797Z,10.65
2022-10-02T12:16:19.282Z,9.80
2022-10-02T12:22:09.690Z,4.70
2022-10-02T12:27:43.274Z,6.75
2022-10-02T12:33:15.394Z,7.30
2022-10-02T12:38:34.744Z,5.97
2022-10-02T12:43:54.561Z,4.40
2022-10-02T12:49:14.570Z,7.30
2022-10-02T12:54:47.092Z,6.57
2022-10-02T13:00:03.765Z,16.30
2022-10-02T13:05:46.818Z,8.77
2022-10-02T13:11:03.091Z,10.63
2022-10-02T13:16:26.049Z,6.03
2022-10-02T13:21:51.968Z,9.90
2022-10-02T13:27:16.855Z,9.15
2022-10-02T13:32:38.249Z,10.00
2022-10-02T13:37:42.257Z,8.80
2022-10-02T13:43:14.453Z,8.25
2022-10-02T13:48:33.934Z,10.20
2022-10-02T13:53:52.481Z,8.90
2022-10-02T13:58:59.619Z,8.23
2022-10-02T14:04:22.549Z,6.82
2022-10-02T14:09:35.760Z,6.45
2022-10-02T14:15:01.416Z,9.20
2022-10-02T14:20:18.618Z,4.13
2022-10-02T14:25:53.949Z,7.03
2022-10-02T14:31:17.147Z,7.90
2022-10-02T14:36:48.893Z,6.97
2022-10-02T14:42:21.516Z,6.53
2022-10-02T14:47:37.619Z,5.18
2022-10-02T14:52:53.056Z,7.95
2022-10-02T14:58:15.697Z,6.47
2022-10-02T15:03:55.535Z,7.57
2022-10-02T15:09:14.359Z,5.55
2022-10-02T15:14:26.238Z,6.05
2022-10-02T15:19:39.593Z,4.28
2022-10-02T15:24:46.046Z,4.45
2022-10-02T15:29:56.943Z,5.95
2022-10-02T15:35:38.962Z,3.90
2022-10-02T15:40:53.518Z,4.78
2022-10-02T15:46:15.367Z,3.97
2022-10-02T15:51:31.992Z,4.85
2022-10-02T15:57:00.681Z,6.05
2022-10-02T16:02:17.085Z,5.78
2022-10-02T16:08:04.379Z,8.68
2022-10-02T16:13:42.359Z,6.30
2022-10-02T16:19:08.348Z,4.07
2022-10-02T16:24:43.718Z,4.80
2022-10-02T16:30:00.276Z,5.30
2022-10-02T16:35:20.201Z,3.22
2022-10-02T16:40:25.773Z,8.10
2022-10-02T16:45:59.295Z,6.93
2022-10-02T16:51:28.606Z,7.60
2022-10-02T16:56:49.320Z,6.53
2022-10-02T17:02:16.387Z,6.03
2022-10-02T17:07:32.970Z,6.97
2022-10-02T17:12:53.150Z,6.65
2022-10-02T17:18:17.010Z,9.90
2022-10-02T17:23:36.837Z,9.57
2022-10-02T17:28:57.295Z,10.30
2022-10-02T17:34:11.557Z,8.47
2022-10-02T17:39:28.323Z,9.77
2022-10-02T17:44:48.261Z,4.65
2022-10-02T17:50:04.831Z,7.50
2022-10-02T17:56:02.363Z,7.00
2022-10-02T18:01:16.702Z,6.22
2022-10-02T18:06:47.231Z,8.75
2022-10-02T18:12:14.542Z,6.85
2022-10-02T18:17:48.742Z,7.85
2022-10-02T18:23:16.027Z,15.27
2022-10-02T18:28:40.838Z,11.30
2022-10-02T18:34:26.558Z,21.63
2022-10-02T18:39:42.173Z,11.75
2022-10-02T18:45:03.821Z,8.40
2022-10-02T18:50:28.786Z,20.23
2022-10-02T18:56:02.239Z,22.75
2022-10-02T19:01:12.934Z,10.93
2022-10-02T19:06:32.202Z,8.73
2022-10-02T19:11:42.312Z,14.73
2022-10-02T19:16:56.927Z,8.07
2022-10-02T19:22:09.852Z,10.02
2022-10-02T19:27:23.974Z,9.88
2022-10-02T19:32:34.049Z,13.52
2022-10-02T19:37:41.377Z,13.43
2022-10-02T19:42:51.969Z,10.35
2022-10-02T19:48:00.049Z,16.67
2022-10-02T19:53:06.754Z,15.18
2022-10-02T19:58:40.311Z,15.35
2022-10-02T20:03:43.676Z,9.50
2022-10-02T20:08:49.360Z,12.90
2022-10-02T20:13:56.530Z,11.75
2022-10-02T20:18:57.929Z,12.98
2022-10-02T20:29:09.517Z,8.68
2022-10-02T20:34:25.443Z,10.35
2022-10-02T20:39:32.632Z,11.23
2022-10-02T20:44:36.418Z,7.60
2022-10-02T20:49:52.716Z,12.02
2022-10-02T20:55:15.573Z,9.23
2022-10-02T21:00:21.772Z,11.63
2022-10-02T21:05:43.723Z,9.07
2022-10-02T21:11:16.493Z,8.27
2022-10-02T21:16:56.997Z,10.95
2022-10-02T21:22:22.587Z,9.65
2022-10-02T21:27:58.010Z,11.38
2022-10-02T21:33:18.935Z,8.95
2022-10-02T21:38:48.964Z,7.63
2022-10-02T21:44:17.824Z,10.55
2022-10-02T21:49:53.613Z,13.27
2022-10-02T21:55:07.106Z,10.82
2022-10-02T22:00:14.296Z,13.50
2022-10-02T22:05:46.348Z,13.35
2022-10-02T22:10:56.490Z,9.25
2022-10-02T22:16:04.004Z,10.70
2022-10-02T22:21:26.494Z,11.60
2022-10-02T22:26:42.181Z,9.48
2022-10-02T22:32:35.397Z,7.20
2022-10-02T22:37:59.807Z,11.30
2022-10-02T22:43:06.236Z,8.93
2022-10-02T22:48:33.957Z,11.10
2022-10-02T22:53:49.605Z,11.00
2022-10-02T22:59:06.504Z,8.68
2022-10-02T23:04:20.914Z,10.57
2022-10-02T23:09:36.049Z,12.77
2022-10-02T23:14:44.169Z,8.30
2022-10-02T23:19:56.321Z,16.58
2022-10-02T23:25:16.513Z,8.82
2022-10-02T23:30:20.440Z,9.82
2022-10-02T23:35:30.018Z,11.32
2022-10-02T23:40:51.945Z,14.05
2022-10-02T23:46:04.120Z,13.75
2022-10-02T23:51:08.515Z,12.88
2022-10-02T23:56:17.637Z,6.55
